sensor_id;sensor_type;location;lat;lon;timestamp;P1;durP1;ratioP1;P2;durP2;ratioP2
25639;SDS011;13497;48.322;16.204;2023-07-20T00:02:23;1.15;;;1.02;;
25639;SDS011;13497;48.322;16.204;2023-07-20T00:04:49;1.13;;;0.90;;
25639;SDS011;13497;48.322;16.204;2023-07-20T00:07:14;2.67;;;1.50;;
25639;SDS011;13497;48.322;16.204;2023-07-20T00:09:40;1.60;;;1.17;;
25639;SDS011;13497;48.322;16.204;2023-07-20T00:12:06;1.23;;;1.10;;
25639;SDS011;13497;48.322;16.204;2023-07-20T00:14:32;2.17;;;1.38;;
25639;SDS011;13497;48.322;16.204;2023-07-20T00:16:58;1.75;;;0.98;;
25639;SDS011;13497;48.322;16.204;2023-07-20T00:19:24;2.25;;;1.30;;
25639;SDS011;13497;48.322;16.204;2023-07-20T00:21:52;1.58;;;1.08;;
25639;SDS011;13497;48.322;16.204;2023-07-20T00:24:18;1.83;;;1.40;;
25639;SDS011;13497;48.322;16.204;2023-07-20T00:26:44;1.15;;;0.95;;
25639;SDS011;13497;48.322;16.204;2023-07-20T00:29:09;3.28;;;1.40;;
25639;SDS011;13497;48.322;16.204;2023-07-20T00:31:35;1.80;;;1.13;;
25639;SDS011;13497;48.322;16.204;2023-07-20T00:36:31;2.08;;;1.30;;
25639;SDS011;13497;48.322;16.204;2023-07-20T00:38:57;1.48;;;1.20;;
25639;SDS011;13497;48.322;16.204;2023-07-20T00:41:23;2.90;;;0.93;;
25639;SDS011;13497;48.322;16.204;2023-07-20T00:43:49;1.20;;;1.10;;
25639;SDS011;13497;48.322;16.204;2023-07-20T00:46:15;1.23;;;1.08;;
25639;SDS011;13497;48.322;16.204;2023-07-20T00:48:41;2.05;;;1.23;;
25639;SDS011;13497;48.322;16.204;2023-07-20T00:51:08;1.30;;;1.10;;
25639;SDS011;13497;48.322;16.204;2023-07-20T00:55:59;1.83;;;1.10;;
25639;SDS011;13497;48.322;16.204;2023-07-20T00:58:25;1.45;;;1.10;;
25639;SDS011;13497;48.322;16.204;2023-07-20T01:00:51;1.13;;;1.02;;
25639;SDS011;13497;48.322;16.204;2023-07-20T01:03:17;1.40;;;1.20;;
25639;SDS011;13497;48.322;16.204;2023-07-20T01:05:48;1.67;;;1.27;;
25639;SDS011;13497;48.322;16.204;2023-07-20T01:11:28;1.48;;;1.15;;
25639;SDS011;13497;48.322;16.204;2023-07-20T01:14:14;1.98;;;1.00;;
25639;SDS011;13497;48.322;16.204;2023-07-20T01:16:41;1.05;;;0.95;;
25639;SDS011;13497;48.322;16.204;2023-07-20T01:19:07;2.33;;;1.25;;
25639;SDS011;13497;48.322;16.204;2023-07-20T01:21:47;1.38;;;1.10;;
25639;SDS011;13497;48.322;16.204;2023-07-20T01:27:25;2.07;;;1.30;;
25639;SDS011;13497;48.322;16.204;2023-07-20T01:32:30;1.35;;;1.20;;
25639;SDS011;13497;48.322;16.204;2023-07-20T01:37:23;4.05;;;1.33;;
25639;SDS011;13497;48.322;16.204;2023-07-20T01:39:53;2.13;;;0.93;;
25639;SDS011;13497;48.322;16.204;2023-07-20T01:42:22;1.02;;;0.93;;
25639;SDS011;13497;48.322;16.204;2023-07-20T01:44:52;1.65;;;0.90;;
25639;SDS011;13497;48.322;16.204;2023-07-20T01:47:18;1.50;;;1.13;;
25639;SDS011;13497;48.322;16.204;2023-07-20T01:49:44;1.02;;;0.93;;
25639;SDS011;13497;48.322;16.204;2023-07-20T01:52:10;2.35;;;1.17;;
25639;SDS011;13497;48.322;16.204;2023-07-20T01:54:36;1.15;;;0.90;;
25639;SDS011;13497;48.322;16.204;2023-07-20T01:57:02;1.48;;;1.00;;
25639;SDS011;13497;48.322;16.204;2023-07-20T01:59:27;1.50;;;1.05;;
25639;SDS011;13497;48.322;16.204;2023-07-20T02:01:56;1.40;;;1.30;;
25639;SDS011;13497;48.322;16.204;2023-07-20T02:04:21;2.10;;;1.30;;
25639;SDS011;13497;48.322;16.204;2023-07-20T02:06:47;1.65;;;1.17;;
25639;SDS011;13497;48.322;16.204;2023-07-20T02:09:13;2.25;;;1.27;;
25639;SDS011;13497;48.322;16.204;2023-07-20T02:11:38;2.07;;;1.60;;
25639;SDS011;13497;48.322;16.204;2023-07-20T02:14:04;2.20;;;1.50;;
25639;SDS011;13497;48.322;16.204;2023-07-20T02:16:30;1.50;;;1.20;;
25639;SDS011;13497;48.322;16.204;2023-07-20T02:18:55;1.13;;;1.02;;
25639;SDS011;13497;48.322;16.204;2023-07-20T02:21:22;2.15;;;1.38;;
25639;SDS011;13497;48.322;16.204;2023-07-20T02:23:48;1.58;;;1.08;;
25639;SDS011;13497;48.322;16.204;2023-07-20T02:26:13;1.83;;;1.10;;
25639;SDS011;13497;48.322;16.204;2023-07-20T02:28:39;2.08;;;1.67;;
25639;SDS011;13497;48.322;16.204;2023-07-20T02:31:06;2.08;;;1.13;;
25639;SDS011;13497;48.322;16.204;2023-07-20T02:33:32;1.65;;;1.30;;
25639;SDS011;13497;48.322;16.204;2023-07-20T02:35:58;2.00;;;1.30;;
25639;SDS011;13497;48.322;16.204;2023-07-20T02:38:23;1.95;;;1.17;;
25639;SDS011;13497;48.322;16.204;2023-07-20T02:40:49;3.85;;;1.50;;
25639;SDS011;13497;48.322;16.204;2023-07-20T02:43:15;3.33;;;1.58;;
25639;SDS011;13497;48.322;16.204;2023-07-20T02:45:41;1.77;;;1.25;;
25639;SDS011;13497;48.322;16.204;2023-07-20T02:48:09;1.42;;;0.98;;
25639;SDS011;13497;48.322;16.204;2023-07-20T02:50:35;3.47;;;1.17;;
25639;SDS011;13497;48.322;16.204;2023-07-20T02:53:01;2.03;;;1.60;;
25639;SDS011;13497;48.322;16.204;2023-07-20T02:55:27;1.67;;;1.25;;
25639;SDS011;13497;48.322;16.204;2023-07-20T02:57:53;2.55;;;1.33;;
25639;SDS011;13497;48.322;16.204;2023-07-20T03:00:18;2.97;;;1.40;;
25639;SDS011;13497;48.322;16.204;2023-07-20T03:02:45;1.63;;;1.23;;
25639;SDS011;13497;48.322;16.204;2023-07-20T03:05:12;2.10;;;1.33;;
25639;SDS011;13497;48.322;16.204;2023-07-20T03:10:04;1.45;;;1.30;;
25639;SDS011;13497;48.322;16.204;2023-07-20T03:12:34;1.90;;;1.40;;
25639;SDS011;13497;48.322;16.204;2023-07-20T03:15:01;2.70;;;1.40;;
25639;SDS011;13497;48.322;16.204;2023-07-20T03:17:27;3.30;;;1.42;;
25639;SDS011;13497;48.322;16.204;2023-07-20T03:19:53;13.05;;;2.22;;
25639;SDS011;13497;48.322;16.204;2023-07-20T03:22:18;3.15;;;1.55;;
25639;SDS011;13497;48.322;16.204;2023-07-20T03:24:44;1.33;;;1.23;;
25639;SDS011;13497;48.322;16.204;2023-07-20T03:27:10;2.17;;;1.10;;
25639;SDS011;13497;48.322;16.204;2023-07-20T03:29:35;2.27;;;1.43;;
25639;SDS011;13497;48.322;16.204;2023-07-20T03:32:01;2.38;;;1.50;;
25639;SDS011;13497;48.322;16.204;2023-07-20T03:36:53;4.55;;;1.38;;
25639;SDS011;13497;48.322;16.204;2023-07-20T03:39:19;2.15;;;1.45;;
25639;SDS011;13497;48.322;16.204;2023-07-20T03:41:44;3.63;;;1.70;;
25639;SDS011;13497;48.322;16.204;2023-07-20T03:44:10;2.87;;;1.40;;
25639;SDS011;13497;48.322;16.204;2023-07-20T03:46:36;3.00;;;1.42;;
25639;SDS011;13497;48.322;16.204;2023-07-20T03:51:28;1.50;;;1.15;;
25639;SDS011;13497;48.322;16.204;2023-07-20T03:53:54;1.58;;;1.48;;
25639;SDS011;13497;48.322;16.204;2023-07-20T03:56:20;2.88;;;1.10;;
25639;SDS011;13497;48.322;16.204;2023-07-20T03:58:45;3.85;;;1.30;;
25639;SDS011;13497;48.322;16.204;2023-07-20T04:01:11;2.33;;;1.30;;
25639;SDS011;13497;48.322;16.204;2023-07-20T04:03:38;5.78;;;2.03;;
25639;SDS011;13497;48.322;16.204;2023-07-20T04:06:03;1.52;;;1.42;;
25639;SDS011;13497;48.322;16.204;2023-07-20T04:08:29;1.67;;;1.58;;
25639;SDS011;13497;48.322;16.204;2023-07-20T04:10:55;1.63;;;1.33;;
25639;SDS011;13497;48.322;16.204;2023-07-20T04:13:21;4.18;;;1.50;;
25639;SDS011;13497;48.322;16.204;2023-07-20T04:15:47;1.48;;;1.38;;
25639;SDS011;13497;48.322;16.204;2023-07-20T04:18:12;1.25;;;1.15;;
25639;SDS011;13497;48.322;16.204;2023-07-20T04:20:38;1.48;;;1.38;;
25639;SDS011;13497;48.322;16.204;2023-07-20T04:23:04;2.50;;;1.27;;
25639;SDS011;13497;48.322;16.204;2023-07-20T04:25:29;3.90;;;1.98;;
25639;SDS011;13497;48.322;16.204;2023-07-20T04:28:03;1.60;;;1.50;;
25639;SDS011;13497;48.322;16.204;2023-07-20T04:30:29;1.33;;;1.15;;
25639;SDS011;13497;48.322;16.204;2023-07-20T04:32:55;3.22;;;1.30;;
25639;SDS011;13497;48.322;16.204;2023-07-20T04:38:12;1.27;;;1.15;;
25639;SDS011;13497;48.322;16.204;2023-07-20T04:40:37;2.58;;;1.33;;
25639;SDS011;13497;48.322;16.204;2023-07-20T04:43:03;1.35;;;1.20;;
25639;SDS011;13497;48.322;16.204;2023-07-20T04:45:28;1.60;;;1.40;;
25639;SDS011;13497;48.322;16.204;2023-07-20T04:50:20;1.52;;;1.38;;
25639;SDS011;13497;48.322;16.204;2023-07-20T04:52:46;1.23;;;1.10;;
25639;SDS011;13497;48.322;16.204;2023-07-20T04:55:13;2.38;;;1.10;;
25639;SDS011;13497;48.322;16.204;2023-07-20T04:57:38;1.73;;;1.15;;
25639;SDS011;13497;48.322;16.204;2023-07-20T05:00:04;2.25;;;1.40;;
25639;SDS011;13497;48.322;16.204;2023-07-20T05:02:31;1.73;;;1.40;;
25639;SDS011;13497;48.322;16.204;2023-07-20T05:04:57;2.88;;;1.10;;
25639;SDS011;13497;48.322;16.204;2023-07-20T05:07:22;3.10;;;1.10;;
25639;SDS011;13497;48.322;16.204;2023-07-20T05:09:48;3.33;;;1.40;;
25639;SDS011;13497;48.322;16.204;2023-07-20T05:12:14;2.40;;;1.63;;
25639;SDS011;13497;48.322;16.204;2023-07-20T05:14:39;1.35;;;1.25;;
25639;SDS011;13497;48.322;16.204;2023-07-20T05:17:06;2.10;;;1.50;;
25639;SDS011;13497;48.322;16.204;2023-07-20T05:19:32;1.42;;;1.23;;
25639;SDS011;13497;48.322;16.204;2023-07-20T05:21:58;1.30;;;1.10;;
25639;SDS011;13497;48.322;16.204;2023-07-20T05:24:23;1.10;;;1.00;;
25639;SDS011;13497;48.322;16.204;2023-07-20T05:26:49;3.67;;;1.10;;
25639;SDS011;13497;48.322;16.204;2023-07-20T05:29:15;2.53;;;1.23;;
25639;SDS011;13497;48.322;16.204;2023-07-20T05:31:40;3.20;;;1.10;;
25639;SDS011;13497;48.322;16.204;2023-07-20T05:34:06;1.58;;;1.17;;
25639;SDS011;13497;48.322;16.204;2023-07-20T05:36:32;3.10;;;1.30;;
25639;SDS011;13497;48.322;16.204;2023-07-20T05:38:58;1.92;;;1.42;;
25639;SDS011;13497;48.322;16.204;2023-07-20T05:41:23;1.15;;;1.02;;
25639;SDS011;13497;48.322;16.204;2023-07-20T05:43:49;1.90;;;1.70;;
25639;SDS011;13497;48.322;16.204;2023-07-20T05:46:14;2.13;;;1.30;;
25639;SDS011;13497;48.322;16.204;2023-07-20T05:48:40;1.50;;;1.40;;
25639;SDS011;13497;48.322;16.204;2023-07-20T05:53:31;2.72;;;1.30;;
25639;SDS011;13497;48.322;16.204;2023-07-20T05:58:23;1.70;;;1.15;;
25639;SDS011;13497;48.322;16.204;2023-07-20T06:00:49;2.10;;;1.80;;
25639;SDS011;13497;48.322;16.204;2023-07-20T06:03:15;1.50;;;1.40;;
25639;SDS011;13497;48.322;16.204;2023-07-20T06:05:46;6.72;;;1.50;;
25639;SDS011;13497;48.322;16.204;2023-07-20T06:10:37;1.48;;;1.35;;
25639;SDS011;13497;48.322;16.204;2023-07-20T06:15:32;2.35;;;1.42;;
25639;SDS011;13497;48.322;16.204;2023-07-20T06:18:01;3.65;;;1.80;;
25639;SDS011;13497;48.322;16.204;2023-07-20T06:20:28;2.08;;;1.58;;
25639;SDS011;13497;48.322;16.204;2023-07-20T06:25:20;4.25;;;1.92;;
25639;SDS011;13497;48.322;16.204;2023-07-20T06:30:11;1.23;;;1.10;;
25639;SDS011;13497;48.322;16.204;2023-07-20T06:35:03;1.77;;;1.33;;
25639;SDS011;13497;48.322;16.204;2023-07-20T06:37:29;2.17;;;1.45;;
25639;SDS011;13497;48.322;16.204;2023-07-20T06:42:20;1.45;;;1.35;;
25639;SDS011;13497;48.322;16.204;2023-07-20T06:44:46;1.83;;;1.23;;
25639;SDS011;13497;48.322;16.204;2023-07-20T06:47:11;2.45;;;1.20;;
25639;SDS011;13497;48.322;16.204;2023-07-20T06:52:03;2.10;;;1.20;;
25639;SDS011;13497;48.322;16.204;2023-07-20T06:56:54;1.90;;;1.33;;
25639;SDS011;13497;48.322;16.204;2023-07-20T06:59:20;1.90;;;1.20;;
25639;SDS011;13497;48.322;16.204;2023-07-20T07:01:46;1.40;;;1.20;;
25639;SDS011;13497;48.322;16.204;2023-07-20T07:04:12;1.25;;;1.15;;
25639;SDS011;13497;48.322;16.204;2023-07-20T07:06:37;2.00;;;1.20;;
25639;SDS011;13497;48.322;16.204;2023-07-20T07:09:03;3.58;;;1.40;;
25639;SDS011;13497;48.322;16.204;2023-07-20T07:11:29;1.33;;;1.13;;
25639;SDS011;13497;48.322;16.204;2023-07-20T07:16:20;1.85;;;1.40;;
25639;SDS011;13497;48.322;16.204;2023-07-20T07:18:46;2.55;;;1.20;;
25639;SDS011;13497;48.322;16.204;2023-07-20T07:21:12;1.80;;;1.25;;
25639;SDS011;13497;48.322;16.204;2023-07-20T07:23:38;2.70;;;1.40;;
25639;SDS011;13497;48.322;16.204;2023-07-20T07:26:04;3.35;;;1.60;;
25639;SDS011;13497;48.322;16.204;2023-07-20T07:28:30;2.63;;;0.85;;
25639;SDS011;13497;48.322;16.204;2023-07-20T07:30:56;0.82;;;0.82;;
25639;SDS011;13497;48.322;16.204;2023-07-20T07:33:22;4.75;;;1.40;;
25639;SDS011;13497;48.322;16.204;2023-07-20T07:35:49;1.63;;;1.30;;
25639;SDS011;13497;48.322;16.204;2023-07-20T07:38:16;1.20;;;1.10;;
25639;SDS011;13497;48.322;16.204;2023-07-20T07:40:41;2.30;;;1.20;;
25639;SDS011;13497;48.322;16.204;2023-07-20T07:43:07;1.40;;;1.00;;
25639;SDS011;13497;48.322;16.204;2023-07-20T07:45:35;1.15;;;1.05;;
25639;SDS011;13497;48.322;16.204;2023-07-20T07:48:04;2.03;;;0.88;;
25639;SDS011;13497;48.322;16.204;2023-07-20T07:50:30;4.00;;;1.25;;
25639;SDS011;13497;48.322;16.204;2023-07-20T07:52:56;2.67;;;1.00;;
25639;SDS011;13497;48.322;16.204;2023-07-20T07:55:22;1.00;;;0.90;;
25639;SDS011;13497;48.322;16.204;2023-07-20T07:57:47;1.05;;;0.80;;
25639;SDS011;13497;48.322;16.204;2023-07-20T08:00:14;1.83;;;1.13;;
25639;SDS011;13497;48.322;16.204;2023-07-20T08:02:43;0.80;;;0.75;;
25639;SDS011;13497;48.322;16.204;2023-07-20T08:05:09;1.10;;;1.00;;
25639;SDS011;13497;48.322;16.204;2023-07-20T08:07:35;2.00;;;1.38;;
25639;SDS011;13497;48.322;16.204;2023-07-20T08:10:01;3.88;;;1.13;;
25639;SDS011;13497;48.322;16.204;2023-07-20T08:12:27;1.73;;;1.10;;
25639;SDS011;13497;48.322;16.204;2023-07-20T08:14:53;1.50;;;0.95;;
25639;SDS011;13497;48.322;16.204;2023-07-20T08:17:19;2.40;;;1.30;;
25639;SDS011;13497;48.322;16.204;2023-07-20T08:19:45;1.58;;;1.10;;
25639;SDS011;13497;48.322;16.204;2023-07-20T08:22:11;1.65;;;0.90;;
25639;SDS011;13497;48.322;16.204;2023-07-20T08:24:40;1.08;;;0.90;;
25639;SDS011;13497;48.322;16.204;2023-07-20T08:27:06;1.42;;;1.10;;
25639;SDS011;13497;48.322;16.204;2023-07-20T08:29:33;1.20;;;0.90;;
25639;SDS011;13497;48.322;16.204;2023-07-20T08:31:59;1.27;;;1.08;;
25639;SDS011;13497;48.322;16.204;2023-07-20T08:34:25;0.80;;;0.80;;
25639;SDS011;13497;48.322;16.204;2023-07-20T08:36:51;0.88;;;0.80;;
25639;SDS011;13497;48.322;16.204;2023-07-20T08:39:16;1.30;;;1.00;;
25639;SDS011;13497;48.322;16.204;2023-07-20T08:41:42;1.42;;;1.08;;
25639;SDS011;13497;48.322;16.204;2023-07-20T08:44:09;1.75;;;1.10;;
25639;SDS011;13497;48.322;16.204;2023-07-20T08:46:36;3.03;;;1.10;;
25639;SDS011;13497;48.322;16.204;2023-07-20T08:49:03;1.42;;;1.08;;
25639;SDS011;13497;48.322;16.204;2023-07-20T08:51:31;1.70;;;1.15;;
25639;SDS011;13497;48.322;16.204;2023-07-20T08:53:58;1.58;;;1.10;;
25639;SDS011;13497;48.322;16.204;2023-07-20T08:56:24;1.60;;;1.40;;
25639;SDS011;13497;48.322;16.204;2023-07-20T08:58:54;1.85;;;0.90;;
25639;SDS011;13497;48.322;16.204;2023-07-20T09:01:21;1.13;;;1.02;;
25639;SDS011;13497;48.322;16.204;2023-07-20T09:03:47;1.17;;;1.08;;
25639;SDS011;13497;48.322;16.204;2023-07-20T09:06:14;1.17;;;1.08;;
25639;SDS011;13497;48.322;16.204;2023-07-20T09:08:41;2.35;;;1.13;;
25639;SDS011;13497;48.322;16.204;2023-07-20T09:13:33;1.00;;;0.90;;
25639;SDS011;13497;48.322;16.204;2023-07-20T09:15:59;2.38;;;1.10;;
25639;SDS011;13497;48.322;16.204;2023-07-20T09:18:25;2.63;;;0.98;;
25639;SDS011;13497;48.322;16.204;2023-07-20T09:21:01;1.30;;;1.00;;
25639;SDS011;13497;48.322;16.204;2023-07-20T09:23:37;4.28;;;1.50;;
25639;SDS011;13497;48.322;16.204;2023-07-20T09:26:14;10.07;;;1.20;;
25639;SDS011;13497;48.322;16.204;2023-07-20T09:28:51;2.92;;;1.90;;
25639;SDS011;13497;48.322;16.204;2023-07-20T09:31:18;1.20;;;1.10;;
25639;SDS011;13497;48.322;16.204;2023-07-20T09:33:44;1.33;;;1.17;;
25639;SDS011;13497;48.322;16.204;2023-07-20T09:36:11;0.80;;;0.80;;
25639;SDS011;13497;48.322;16.204;2023-07-20T09:38:37;2.35;;;1.00;;
25639;SDS011;13497;48.322;16.204;2023-07-20T09:41:05;1.95;;;0.90;;
25639;SDS011;13497;48.322;16.204;2023-07-20T09:43:34;3.92;;;1.20;;
25639;SDS011;13497;48.322;16.204;2023-07-20T09:46:00;1.23;;;0.98;;
25639;SDS011;13497;48.322;16.204;2023-07-20T09:48:26;2.15;;;1.13;;
25639;SDS011;13497;48.322;16.204;2023-07-20T09:50:52;1.15;;;1.05;;
25639;SDS011;13497;48.322;16.204;2023-07-20T09:53:19;3.40;;;1.17;;
25639;SDS011;13497;48.322;16.204;2023-07-20T09:55:46;1.00;;;0.90;;
25639;SDS011;13497;48.322;16.204;2023-07-20T09:58:13;1.60;;;1.50;;
25639;SDS011;13497;48.322;16.204;2023-07-20T10:00:39;1.42;;;1.23;;
25639;SDS011;13497;48.322;16.204;2023-07-20T10:03:10;1.63;;;1.08;;
25639;SDS011;13497;48.322;16.204;2023-07-20T10:05:38;2.53;;;1.33;;
25639;SDS011;13497;48.322;16.204;2023-07-20T10:08:08;1.30;;;1.20;;
25639;SDS011;13497;48.322;16.204;2023-07-20T10:10:37;1.50;;;0.68;;
25639;SDS011;13497;48.322;16.204;2023-07-20T10:13:05;1.40;;;1.30;;
25639;SDS011;13497;48.322;16.204;2023-07-20T10:15:40;1.08;;;0.90;;
25639;SDS011;13497;48.322;16.204;2023-07-20T10:20:49;1.05;;;1.00;;
25639;SDS011;13497;48.322;16.204;2023-07-20T10:23:17;2.03;;;1.02;;
25639;SDS011;13497;48.322;16.204;2023-07-20T10:25:42;2.75;;;1.30;;
25639;SDS011;13497;48.322;16.204;2023-07-20T10:28:10;0.75;;;0.60;;
25639;SDS011;13497;48.322;16.204;2023-07-20T10:30:36;0.80;;;0.80;;
25639;SDS011;13497;48.322;16.204;2023-07-20T10:33:02;0.80;;;0.80;;
25639;SDS011;13497;48.322;16.204;2023-07-20T10:35:29;1.00;;;0.88;;
25639;SDS011;13497;48.322;16.204;2023-07-20T10:48:29;2.38;;;0.80;;
25639;SDS011;13497;48.322;16.204;2023-07-20T11:01:56;1.20;;;1.10;;
25639;SDS011;13497;48.322;16.204;2023-07-20T11:04:46;0.68;;;0.68;;
25639;SDS011;13497;48.322;16.204;2023-07-20T11:07:16;0.98;;;0.60;;
25639;SDS011;13497;48.322;16.204;2023-07-20T11:09:43;2.17;;;0.70;;
25639;SDS011;13497;48.322;16.204;2023-07-20T11:15:02;0.60;;;0.60;;
25639;SDS011;13497;48.322;16.204;2023-07-20T11:17:30;1.27;;;1.00;;
25639;SDS011;13497;48.322;16.204;2023-07-20T11:19:56;1.17;;;0.93;;
25639;SDS011;13497;48.322;16.204;2023-07-20T11:22:23;0.90;;;0.55;;
25639;SDS011;13497;48.322;16.204;2023-07-20T11:27:16;1.17;;;1.08;;
25639;SDS011;13497;48.322;16.204;2023-07-20T11:29:43;0.70;;;0.70;;
25639;SDS011;13497;48.322;16.204;2023-07-20T11:32:10;0.63;;;0.63;;
25639;SDS011;13497;48.322;16.204;2023-07-20T11:37:02;3.40;;;1.05;;
25639;SDS011;13497;48.322;16.204;2023-07-20T11:39:29;0.60;;;0.60;;
25639;SDS011;13497;48.322;16.204;2023-07-20T11:41:55;0.70;;;0.60;;
25639;SDS011;13497;48.322;16.204;2023-07-20T11:44:22;1.90;;;1.05;;
25639;SDS011;13497;48.322;16.204;2023-07-20T11:46:59;2.47;;;0.80;;
25639;SDS011;13497;48.322;16.204;2023-07-20T11:49:27;2.65;;;1.05;;
25639;SDS011;13497;48.322;16.204;2023-07-20T11:54:20;1.25;;;0.80;;
25639;SDS011;13497;48.322;16.204;2023-07-20T11:59:12;1.05;;;0.85;;
25639;SDS011;13497;48.322;16.204;2023-07-20T12:01:37;0.90;;;0.82;;
25639;SDS011;13497;48.322;16.204;2023-07-20T12:04:03;1.23;;;1.05;;
25639;SDS011;13497;48.322;16.204;2023-07-20T12:06:30;2.22;;;0.90;;
25639;SDS011;13497;48.322;16.204;2023-07-20T12:08:57;0.73;;;0.60;;
25639;SDS011;13497;48.322;16.204;2023-07-20T12:11:33;0.75;;;0.70;;
25639;SDS011;13497;48.322;16.204;2023-07-20T12:14:00;0.75;;;0.60;;
25639;SDS011;13497;48.322;16.204;2023-07-20T12:16:27;0.63;;;0.63;;
25639;SDS011;13497;48.322;16.204;2023-07-20T12:19:03;1.38;;;0.43;;
25639;SDS011;13497;48.322;16.204;2023-07-20T12:21:31;1.73;;;0.60;;
25639;SDS011;13497;48.322;16.204;2023-07-20T12:23:58;8.57;;;0.93;;
25639;SDS011;13497;48.322;16.204;2023-07-20T12:26:24;0.90;;;0.70;;
25639;SDS011;13497;48.322;16.204;2023-07-20T12:28:51;0.50;;;0.50;;
25639;SDS011;13497;48.322;16.204;2023-07-20T12:31:17;0.77;;;0.60;;
25639;SDS011;13497;48.322;16.204;2023-07-20T12:33:44;0.80;;;0.50;;
25639;SDS011;13497;48.322;16.204;2023-07-20T12:36:10;0.60;;;0.60;;
25639;SDS011;13497;48.322;16.204;2023-07-20T12:38:36;0.75;;;0.75;;
25639;SDS011;13497;48.322;16.204;2023-07-20T12:41:02;1.00;;;0.50;;
25639;SDS011;13497;48.322;16.204;2023-07-20T12:43:28;0.55;;;0.55;;
25639;SDS011;13497;48.322;16.204;2023-07-20T12:45:55;1.17;;;0.70;;
25639;SDS011;13497;48.322;16.204;2023-07-20T12:48:21;1.15;;;0.70;;
25639;SDS011;13497;48.322;16.204;2023-07-20T12:53:13;0.40;;;0.40;;
25639;SDS011;13497;48.322;16.204;2023-07-20T12:58:05;0.55;;;0.55;;
25639;SDS011;13497;48.322;16.204;2023-07-20T13:00:31;0.70;;;0.65;;
25639;SDS011;13497;48.322;16.204;2023-07-20T13:05:23;0.70;;;0.68;;
25639;SDS011;13497;48.322;16.204;2023-07-20T13:07:49;2.83;;;0.63;;
25639;SDS011;13497;48.322;16.204;2023-07-20T13:12:40;0.65;;;0.60;;
25639;SDS011;13497;48.322;16.204;2023-07-20T13:17:36;0.70;;;0.68;;
25639;SDS011;13497;48.322;16.204;2023-07-20T13:20:06;0.80;;;0.80;;
25639;SDS011;13497;48.322;16.204;2023-07-20T13:22:39;1.77;;;0.52;;
25639;SDS011;13497;48.322;16.204;2023-07-20T13:25:05;0.70;;;0.70;;
25639;SDS011;13497;48.322;16.204;2023-07-20T13:27:32;0.85;;;0.85;;
25639;SDS011;13497;48.322;16.204;2023-07-20T13:29:59;0.75;;;0.75;;
25639;SDS011;13497;48.322;16.204;2023-07-20T13:32:26;0.98;;;0.90;;
25639;SDS011;13497;48.322;16.204;2023-07-20T13:34:52;1.00;;;0.88;;
25639;SDS011;13497;48.322;16.204;2023-07-20T13:39:43;0.70;;;0.70;;
25639;SDS011;13497;48.322;16.204;2023-07-20T13:47:02;1.00;;;0.90;;
25639;SDS011;13497;48.322;16.204;2023-07-20T13:49:30;0.70;;;0.70;;
25639;SDS011;13497;48.322;16.204;2023-07-20T13:51:57;0.85;;;0.85;;
25639;SDS011;13497;48.322;16.204;2023-07-20T13:56:48;0.88;;;0.60;;
25639;SDS011;13497;48.322;16.204;2023-07-20T14:01:40;0.68;;;0.65;;
25639;SDS011;13497;48.322;16.204;2023-07-20T14:06:32;1.00;;;0.85;;
25639;SDS011;13497;48.322;16.204;2023-07-20T14:08:59;1.45;;;1.00;;
25639;SDS011;13497;48.322;16.204;2023-07-20T14:11:24;1.35;;;1.20;;
25639;SDS011;13497;48.322;16.204;2023-07-20T14:16:18;0.95;;;0.95;;
25639;SDS011;13497;48.322;16.204;2023-07-20T14:21:12;0.70;;;0.70;;
25639;SDS011;13497;48.322;16.204;2023-07-20T14:23:38;1.35;;;0.85;;
25639;SDS011;13497;48.322;16.204;2023-07-20T14:28:31;1.02;;;0.90;;
25639;SDS011;13497;48.322;16.204;2023-07-20T14:30:57;2.85;;;1.10;;
25639;SDS011;13497;48.322;16.204;2023-07-20T14:35:48;1.23;;;1.10;;
25639;SDS011;13497;48.322;16.204;2023-07-20T14:40:39;1.10;;;0.68;;
25639;SDS011;13497;48.322;16.204;2023-07-20T14:43:06;1.25;;;1.02;;
25639;SDS011;13497;48.322;16.204;2023-07-20T14:45:32;0.63;;;0.63;;
25639;SDS011;13497;48.322;16.204;2023-07-20T14:47:58;0.80;;;0.80;;
25639;SDS011;13497;48.322;16.204;2023-07-20T14:50:24;1.63;;;1.00;;
25639;SDS011;13497;48.322;16.204;2023-07-20T14:55:15;1.25;;;0.75;;
25639;SDS011;13497;48.322;16.204;2023-07-20T14:57:42;0.57;;;0.57;;
25639;SDS011;13497;48.322;16.204;2023-07-20T15:02:35;0.73;;;0.73;;
25639;SDS011;13497;48.322;16.204;2023-07-20T15:05:08;0.50;;;0.50;;
25639;SDS011;13497;48.322;16.204;2023-07-20T15:07:35;0.70;;;0.70;;
25639;SDS011;13497;48.322;16.204;2023-07-20T15:10:01;0.50;;;0.50;;
25639;SDS011;13497;48.322;16.204;2023-07-20T15:12:28;0.75;;;0.75;;
25639;SDS011;13497;48.322;16.204;2023-07-20T15:17:33;1.33;;;0.80;;
25639;SDS011;13497;48.322;16.204;2023-07-20T15:19:59;0.80;;;0.80;;
25639;SDS011;13497;48.322;16.204;2023-07-20T15:22:25;0.70;;;0.60;;
25639;SDS011;13497;48.322;16.204;2023-07-20T15:27:17;0.60;;;0.60;;
25639;SDS011;13497;48.322;16.204;2023-07-20T15:32:09;0.70;;;0.70;;
25639;SDS011;13497;48.322;16.204;2023-07-20T15:34:35;3.53;;;0.68;;
25639;SDS011;13497;48.322;16.204;2023-07-20T15:39:27;0.60;;;0.60;;
25639;SDS011;13497;48.322;16.204;2023-07-20T15:44:20;0.67;;;0.60;;
25639;SDS011;13497;48.322;16.204;2023-07-20T15:49:12;0.60;;;0.60;;
25639;SDS011;13497;48.322;16.204;2023-07-20T15:54:07;2.10;;;0.75;;
25639;SDS011;13497;48.322;16.204;2023-07-20T15:56:35;2.13;;;0.90;;
25639;SDS011;13497;48.322;16.204;2023-07-20T15:59:02;0.70;;;0.70;;
25639;SDS011;13497;48.322;16.204;2023-07-20T16:03:55;0.70;;;0.60;;
25639;SDS011;13497;48.322;16.204;2023-07-20T16:08:46;0.88;;;0.68;;
25639;SDS011;13497;48.322;16.204;2023-07-20T16:13:37;0.73;;;0.57;;
25639;SDS011;13497;48.322;16.204;2023-07-20T16:18:28;0.60;;;0.60;;
25639;SDS011;13497;48.322;16.204;2023-07-20T16:23:20;0.88;;;0.63;;
25639;SDS011;13497;48.322;16.204;2023-07-20T16:25:46;2.55;;;0.80;;
25639;SDS011;13497;48.322;16.204;2023-07-20T16:28:12;2.58;;;0.70;;
25639;SDS011;13497;48.322;16.204;2023-07-20T16:33:04;2.17;;;0.73;;
25639;SDS011;13497;48.322;16.204;2023-07-20T16:35:35;0.50;;;0.50;;
25639;SDS011;13497;48.322;16.204;2023-07-20T16:38:02;0.85;;;0.60;;
25639;SDS011;13497;48.322;16.204;2023-07-20T16:40:28;0.90;;;0.63;;
25639;SDS011;13497;48.322;16.204;2023-07-20T16:42:54;0.40;;;0.40;;
25639;SDS011;13497;48.322;16.204;2023-07-20T16:45:20;0.82;;;0.70;;
25639;SDS011;13497;48.322;16.204;2023-07-20T16:47:45;0.70;;;0.70;;
25639;SDS011;13497;48.322;16.204;2023-07-20T16:52:37;0.60;;;0.60;;
25639;SDS011;13497;48.322;16.204;2023-07-20T16:57:28;0.60;;;0.60;;
25639;SDS011;13497;48.322;16.204;2023-07-20T16:59:54;0.60;;;0.60;;
25639;SDS011;13497;48.322;16.204;2023-07-20T17:04:48;0.52;;;0.52;;
25639;SDS011;13497;48.322;16.204;2023-07-20T17:07:14;0.98;;;0.57;;
25639;SDS011;13497;48.322;16.204;2023-07-20T17:12:06;0.63;;;0.60;;
25639;SDS011;13497;48.322;16.204;2023-07-20T17:14:33;2.15;;;0.60;;
25639;SDS011;13497;48.322;16.204;2023-07-20T17:17:00;1.38;;;0.80;;
25639;SDS011;13497;48.322;16.204;2023-07-20T17:19:26;0.60;;;0.60;;
25639;SDS011;13497;48.322;16.204;2023-07-20T17:21:52;0.82;;;0.70;;
25639;SDS011;13497;48.322;16.204;2023-07-20T17:24:18;0.80;;;0.80;;
25639;SDS011;13497;48.322;16.204;2023-07-20T17:26:44;0.70;;;0.60;;
25639;SDS011;13497;48.322;16.204;2023-07-20T17:31:35;0.63;;;0.60;;
25639;SDS011;13497;48.322;16.204;2023-07-20T17:36:27;0.80;;;0.70;;